createdAt,value
2017-04-12T00:00:49.588Z,0
2017-04-12T00:02:04.229Z,0
2017-04-12T00:02:49.635Z,0
2017-04-12T00:03:49.657Z,0
2017-04-12T00:04:49.678Z,0
2017-04-12T00:05:49.712Z,0
2017-04-12T00:06:49.719Z,0
2017-04-12T00:08:04.395Z,0
2017-04-12T00:09:04.375Z,0
2017-04-12T00:10:04.385Z,0
2017-04-12T00:10:49.792Z,0
2017-04-12T00:12:49.833Z,0
2017-04-12T00:13:49.859Z,0
2017-04-12T00:14:49.876Z,0
2017-04-12T00:15:49.894Z,0
2017-04-12T00:16:49.911Z,0
2017-04-12T00:17:49.632Z,0
2017-04-12T00:19:04.573Z,0
2017-04-12T00:19:49.669Z,0
2017-04-12T00:20:49.991Z,0
2017-04-12T00:21:50.018Z,0
2017-04-12T00:22:50.036Z,0
2017-04-12T00:25:04.687Z,0
2017-04-12T00:25:50.091Z,0
2017-04-12T00:26:49.807Z,0
2017-04-12T00:27:50.139Z,0
2017-04-12T00:28:50.155Z,0
2017-04-12T00:29:50.172Z,0
2017-04-12T00:30:50.194Z,0
2017-04-12T00:31:50.221Z,0
2017-04-12T00:33:04.847Z,0
2017-04-12T00:33:49.959Z,0
2017-04-12T00:34:49.972Z,0
2017-04-12T00:36:04.909Z,0
2017-04-12T00:37:19.543Z,0
2017-04-12T00:37:50.342Z,0
2017-04-12T00:38:50.356Z,0
2017-04-12T00:39:50.381Z,0
2017-04-12T00:41:05.004Z,0
2017-04-12T00:41:50.410Z,0
2017-04-12T00:42:50.435Z,0
2017-04-12T00:44:05.079Z,0
2017-04-12T00:44:50.468Z,0
2017-04-12T00:45:50.493Z,0
2017-04-12T00:46:50.513Z,0
2017-04-12T00:47:50.539Z,0
2017-04-12T00:49:05.210Z,0
2017-04-12T00:49:50.580Z,0
2017-04-12T00:50:50.589Z,0
2017-04-12T00:51:50.617Z,0
2017-04-12T00:52:50.631Z,0
2017-04-12T00:53:50.662Z,0
2017-04-12T00:55:04.981Z,0
2017-04-12T00:55:50.692Z,0
2017-04-12T00:57:05.328Z,0
2017-04-12T00:57:51.041Z,0
2017-04-12T00:58:50.754Z,0
2017-04-12T00:59:50.772Z,0
2017-04-12T01:01:05.415Z,0
2017-04-12T01:01:50.816Z,0
2017-04-12T01:02:50.849Z,0
2017-04-12T01:03:50.855Z,0
2017-04-12T01:04:50.872Z,0
2017-04-12T01:06:05.201Z,0
2017-04-12T01:06:50.910Z,0
2017-04-12T01:07:50.934Z,0
2017-04-12T01:08:50.959Z,0
2017-04-12T01:10:05.586Z,0
2017-04-12T01:11:05.604Z,0
2017-04-12T01:11:51.009Z,0
2017-04-12T01:13:05.644Z,0
2017-04-12T01:13:51.060Z,0
2017-04-12T01:14:51.065Z,0
2017-04-12T01:16:50.803Z,0
2017-04-12T01:17:51.130Z,0
2017-04-12T01:18:51.151Z,0
2017-04-12T01:19:51.168Z,0
2017-04-12T01:20:51.241Z,0
2017-04-12T01:22:05.825Z,0
2017-04-12T01:22:51.435Z,0
2017-04-12T01:23:51.249Z,0
2017-04-12T01:24:51.265Z,0
2017-04-12T01:25:51.284Z,0
2017-04-12T01:26:51.307Z,0
2017-04-12T01:27:51.332Z,0
2017-04-12T01:29:06.164Z,0
2017-04-12T01:30:51.382Z,0
2017-04-12T01:32:51.425Z,0
2017-04-12T01:33:51.460Z,0
2017-04-12T01:34:51.467Z,0
2017-04-12T01:35:51.482Z,0
2017-04-12T01:36:51.503Z,0
2017-04-12T01:38:05.841Z,0
2017-04-12T01:38:51.548Z,0
2017-04-12T01:40:05.878Z,0
2017-04-12T01:40:51.579Z,0
2017-04-12T01:41:51.608Z,0
2017-04-12T01:42:51.619Z,0
2017-04-12T01:44:06.278Z,0
2017-04-12T01:46:05.996Z,0
2017-04-12T01:46:51.701Z,0
2017-04-12T01:47:51.719Z,0
2017-04-12T01:48:51.742Z,0
2017-04-12T01:49:51.455Z,0
2017-04-12T01:50:51.781Z,0
2017-04-12T01:51:51.801Z,0
2017-04-12T01:52:51.822Z,0
2017-04-12T01:53:51.841Z,0
2017-04-12T01:54:51.863Z,0
2017-04-12T01:56:06.194Z,0
2017-04-12T01:57:06.515Z,0
2017-04-12T01:57:51.918Z,0
2017-04-12T01:58:51.935Z,0
2017-04-12T01:59:51.961Z,0
2017-04-12T02:01:51.999Z,0
2017-04-12T02:02:51.719Z,0
2017-04-12T02:03:52.042Z,0
2017-04-12T02:04:52.063Z,0
2017-04-12T02:05:52.080Z,0
2017-04-12T02:07:06.715Z,0
2017-04-12T02:07:51.822Z,0
2017-04-12T02:09:06.754Z,0
2017-04-12T02:09:52.164Z,0
2017-04-12T02:10:52.173Z,0
2017-04-12T02:11:52.200Z,0
2017-04-12T02:13:06.832Z,0
2017-04-12T02:13:52.235Z,0
2017-04-12T02:15:06.872Z,0
2017-04-12T02:16:06.890Z,0
2017-04-12T02:16:52.297Z,0
2017-04-12T02:18:06.931Z,0
2017-04-12T02:19:06.689Z,0
2017-04-12T02:19:52.356Z,0
2017-04-12T02:20:52.374Z,0
2017-04-12T02:21:52.094Z,0
2017-04-12T02:23:52.435Z,0
2017-04-12T02:25:07.072Z,0
2017-04-12T02:25:52.470Z,0
2017-04-12T02:27:21.728Z,0
2017-04-12T02:27:52.215Z,0
2017-04-12T02:29:21.765Z,0
2017-04-12T02:29:52.552Z,0
2017-04-12T02:30:52.577Z,0
2017-04-12T02:32:06.913Z,0
2017-04-12T02:33:52.837Z,0
2017-04-12T02:35:52.417Z,0
2017-04-12T02:36:52.693Z,0
2017-04-12T02:37:52.715Z,0
2017-04-12T02:39:52.755Z,0
2017-04-12T02:41:07.390Z,0
2017-04-12T02:42:07.409Z,0
2017-04-12T02:42:52.817Z,0
2017-04-12T02:44:08.253Z,0
2017-04-12T02:45:07.471Z,0
2017-04-12T02:45:52.871Z,0
2017-04-12T02:46:52.894Z,0
2017-04-12T02:48:07.526Z,0
2017-04-12T02:48:52.940Z,0
2017-04-12T02:49:53.156Z,0
2017-04-12T02:50:52.982Z,0
2017-04-12T02:51:52.993Z,0
2017-04-12T02:53:07.635Z,0
2017-04-12T02:53:53.034Z,0
2017-04-12T02:55:53.072Z,0
2017-04-12T02:56:53.096Z,0
2017-04-12T02:58:07.427Z,0
2017-04-12T02:58:53.133Z,0
2017-04-12T03:00:07.465Z,0
2017-04-12T03:01:22.402Z,0
2017-04-12T03:01:53.200Z,0
2017-04-12T03:02:53.216Z,0
2017-04-12T03:04:52.954Z,0
2017-04-12T03:05:53.272Z,0
2017-04-12T03:06:53.292Z,0
2017-04-12T03:07:53.313Z,0
2017-04-12T03:08:52.730Z,0
2017-04-12T03:09:53.359Z,0
2017-04-12T03:11:53.391Z,0
2017-04-12T03:12:53.416Z,0
2017-04-12T03:13:53.438Z,0
2017-04-12T03:15:08.067Z,0
2017-04-12T03:16:08.089Z,0
2017-04-12T03:16:53.500Z,0
2017-04-12T03:17:53.521Z,0
2017-04-12T03:19:53.552Z,0
2017-04-12T03:20:53.572Z,0
2017-04-12T03:21:53.590Z,0
2017-04-12T03:22:53.769Z,0
2017-04-12T03:23:53.633Z,0
2017-04-12T03:24:53.654Z,0
2017-04-12T03:25:53.671Z,0
2017-04-12T03:27:08.319Z,0
2017-04-12T03:27:53.717Z,0
2017-04-12T03:29:08.347Z,0
2017-04-12T03:29:53.755Z,0
2017-04-12T03:31:08.391Z,0
2017-04-12T03:31:53.786Z,0
2017-04-12T03:32:53.808Z,0
2017-04-12T03:34:08.447Z,0
2017-04-12T03:34:53.849Z,0
2017-04-12T03:36:53.584Z,0
2017-04-12T03:37:53.908Z,0
2017-04-12T03:38:53.929Z,0
2017-04-12T03:39:53.954Z,0
2017-04-12T03:40:53.970Z,0
2017-04-12T03:41:53.989Z,0
2017-04-12T03:42:54.021Z,0
2017-04-12T03:43:54.061Z,0
2017-04-12T03:44:54.053Z,0
2017-04-12T03:45:54.064Z,0
2017-04-12T03:46:54.091Z,0
2017-04-12T03:47:54.111Z,0
2017-04-12T03:48:54.131Z,0
2017-04-12T03:49:54.150Z,0
2017-04-12T03:51:08.787Z,0
2017-04-12T03:51:54.188Z,0
2017-04-12T03:52:53.913Z,0
2017-04-12T03:54:54.250Z,0
2017-04-12T03:55:54.269Z,0
2017-04-12T03:57:08.917Z,0
2017-04-12T03:57:54.355Z,0
2017-04-12T03:58:54.328Z,0
2017-04-12T03:59:54.349Z,0
2017-04-12T04:01:08.989Z,0
2017-04-12T04:01:54.387Z,0
2017-04-12T04:02:54.412Z,0
2017-04-12T04:03:54.686Z,0
2017-04-12T04:05:09.064Z,0
2017-04-12T04:05:54.467Z,0
2017-04-12T04:07:09.111Z,0
2017-04-12T04:07:54.529Z,0
2017-04-12T04:08:54.535Z,0
2017-04-12T04:09:54.548Z,0
2017-04-12T04:10:54.569Z,0
2017-04-12T04:11:54.586Z,0
2017-04-12T04:12:54.608Z,0
2017-04-12T04:13:54.628Z,0
2017-04-12T04:14:54.644Z,0
2017-04-12T04:15:54.668Z,0
2017-04-12T04:16:54.685Z,0
2017-04-12T04:17:54.708Z,0
2017-04-12T04:18:54.722Z,0
2017-04-12T04:19:54.745Z,0
2017-04-12T04:20:54.773Z,0
2017-04-12T04:21:54.789Z,0
2017-04-12T04:23:09.420Z,0
2017-04-12T04:24:09.146Z,0
2017-04-12T04:25:54.875Z,0
2017-04-12T04:26:54.584Z,0
2017-04-12T04:27:54.907Z,0
2017-04-12T04:28:54.925Z,0
2017-04-12T04:30:09.562Z,0
2017-04-12T04:30:54.659Z,0
2017-04-12T04:32:09.599Z,0
2017-04-12T04:32:55.006Z,0
2017-04-12T04:34:09.637Z,0
2017-04-12T04:36:24.294Z,0
2017-04-12T04:36:55.082Z,0
2017-04-12T04:37:55.108Z,0
2017-04-12T04:39:09.746Z,5
2017-04-12T04:39:55.148Z,5
2017-04-12T04:40:55.169Z,5
2017-04-12T04:41:55.186Z,5
2017-04-12T04:42:55.232Z,5
2017-04-12T04:44:09.844Z,5
2017-04-12T04:45:55.264Z,5
2017-04-12T04:46:55.282Z,5
2017-04-12T04:47:55.303Z,5
2017-04-12T04:49:09.945Z,10
2017-04-12T04:49:55.345Z,10
2017-04-12T04:51:24.594Z,10
2017-04-12T04:51:55.386Z,10
2017-04-12T04:52:55.413Z,10
2017-04-12T04:54:10.039Z,10
2017-04-12T04:54:55.445Z,10
2017-04-12T04:56:55.482Z,10
2017-04-12T04:57:55.505Z,10
2017-04-12T04:58:55.530Z,10
2017-04-12T04:59:55.244Z,10
2017-04-12T05:00:55.564Z,10
2017-04-12T05:01:55.584Z,10
2017-04-12T05:02:55.608Z,10
2017-04-12T05:04:10.241Z,10
2017-04-12T05:04:55.646Z,10
2017-04-12T05:06:10.283Z,10
2017-04-12T05:06:55.684Z,10
2017-04-12T05:07:55.700Z,10
2017-04-12T05:08:55.735Z,10
2017-04-12T05:09:55.743Z,10
2017-04-12T05:10:55.761Z,10
2017-04-12T05:11:55.781Z,10
2017-04-12T05:12:55.809Z,10
2017-04-12T05:14:55.847Z,10
2017-04-12T05:17:10.501Z,10
2017-04-12T05:17:55.910Z,15
2017-04-12T05:19:10.537Z,15
2017-04-12T05:19:55.944Z,15
2017-04-12T05:20:55.967Z,15
2017-04-12T05:22:10.597Z,10
2017-04-12T05:22:56.009Z,10
2017-04-12T05:23:56.028Z,10
2017-04-12T05:24:56.192Z,10
2017-04-12T05:27:10.697Z,10
2017-04-12T05:27:56.109Z,10
2017-04-12T05:28:56.126Z,10
2017-04-12T05:30:56.165Z,10
2017-04-12T05:32:56.204Z,10
2017-04-12T05:33:56.229Z,10
2017-04-12T05:35:10.859Z,10
2017-04-12T05:35:56.263Z,10
2017-04-12T05:36:56.291Z,10
2017-04-12T05:37:56.309Z,10
2017-04-12T05:38:56.325Z,10
2017-04-12T05:40:10.664Z,10
2017-04-12T05:41:10.980Z,15
2017-04-12T05:42:11.005Z,10
2017-04-12T05:42:56.503Z,10
2017-04-12T05:43:56.447Z,10
2017-04-12T05:44:56.446Z,10
2017-04-12T05:45:56.462Z,10
2017-04-12T05:46:56.486Z,10
2017-04-12T05:47:56.509Z,10
2017-04-12T05:48:56.529Z,10
2017-04-12T05:49:56.544Z,10
2017-04-12T05:51:11.182Z,10
2017-04-12T05:51:56.585Z,10
2017-04-12T05:52:56.609Z,10
2017-04-12T05:54:25.855Z,15
2017-04-12T05:55:10.958Z,15
2017-04-12T05:56:11.280Z,15
2017-04-12T05:56:56.723Z,15
2017-04-12T05:58:56.724Z,15
2017-04-12T05:59:56.749Z,15
2017-04-12T06:00:56.763Z,15
2017-04-12T06:01:56.785Z,20
2017-04-12T06:02:56.800Z,15
2017-04-12T06:03:56.519Z,15
2017-04-12T06:04:56.843Z,15
2017-04-12T06:05:56.864Z,20
2017-04-12T06:06:56.924Z,25
2017-04-12T06:07:56.903Z,30
2017-04-12T06:08:56.623Z,30
2017-04-12T06:09:56.941Z,35
2017-04-12T06:11:11.583Z,40
2017-04-12T06:11:56.982Z,45
2017-04-12T06:12:57.011Z,50
2017-04-12T06:14:11.642Z,50
2017-04-12T06:14:57.050Z,50
2017-04-12T06:15:57.077Z,45
2017-04-12T06:16:57.082Z,35
2017-04-12T06:17:57.112Z,30
2017-04-12T06:18:57.126Z,25
2017-04-12T06:19:57.146Z,20
2017-04-12T06:20:57.164Z,15
2017-04-12T06:21:57.185Z,15
2017-04-12T06:22:57.216Z,20
2017-04-12T06:24:11.238Z,25
2017-04-12T06:25:26.479Z,35
2017-04-12T06:25:57.274Z,40
2017-04-12T06:27:26.517Z,50
2017-04-12T06:27:57.005Z,55
2017-04-12T06:29:11.954Z,60
2017-04-12T06:29:57.356Z,60
2017-04-12T06:30:57.368Z,60
2017-04-12T06:32:57.412Z,40
2017-04-12T06:33:57.429Z,35
2017-04-12T06:34:57.448Z,30
2017-04-12T06:36:12.086Z,30
2017-04-12T06:36:57.490Z,30
2017-04-12T06:38:12.124Z,35
2017-04-12T06:38:57.635Z,40
2017-04-12T06:39:57.550Z,45
2017-04-12T06:40:57.567Z,50
2017-04-12T06:42:12.209Z,45
2017-04-12T06:43:12.228Z,50
2017-04-12T06:43:57.631Z,50
2017-04-12T06:44:57.656Z,60
2017-04-12T06:47:57.720Z,100
2017-04-12T06:48:57.737Z,120
2017-04-12T06:49:57.752Z,140
2017-04-12T06:50:57.772Z,165
2017-04-12T06:51:57.796Z,175
2017-04-12T06:52:57.820Z,190
2017-04-12T06:54:12.458Z,175
2017-04-12T06:55:27.090Z,145
2017-04-12T06:56:27.110Z,125
2017-04-12T06:56:57.898Z,110
2017-04-12T06:58:12.573Z,100
2017-04-12T06:58:57.941Z,110
2017-04-12T06:59:58.012Z,120
2017-04-12T07:01:12.602Z,115
2017-04-12T07:01:58.009Z,110
2017-04-12T07:02:58.033Z,100
2017-04-12T07:03:58.047Z,85
2017-04-12T07:04:58.074Z,85
2017-04-12T07:05:58.095Z,90
2017-04-12T07:06:58.153Z,115
2017-04-12T07:08:12.747Z,155
2017-04-12T07:09:58.172Z,190
2017-04-12T07:11:12.809Z,190
2017-04-12T07:11:58.222Z,210
2017-04-12T07:13:12.856Z,235
2017-04-12T07:13:58.259Z,220
2017-04-12T07:14:58.283Z,190
2017-04-12T07:15:58.303Z,155
2017-04-12T07:17:12.943Z,130
2017-04-12T07:17:58.343Z,125
2017-04-12T07:18:58.398Z,125
2017-04-12T07:20:58.411Z,135
2017-04-12T07:21:58.433Z,140
2017-04-12T07:22:58.449Z,145
2017-04-12T07:23:58.473Z,145
2017-04-12T07:24:58.497Z,135
2017-04-12T07:25:58.519Z,130
2017-04-12T07:26:58.539Z,125
2017-04-12T07:27:58.559Z,120
2017-04-12T07:28:58.581Z,115
2017-04-12T07:29:58.603Z,105
2017-04-12T07:31:13.245Z,105
2017-04-12T07:31:59.303Z,115
2017-04-12T07:33:12.996Z,130
2017-04-12T07:33:58.694Z,130
2017-04-12T07:35:58.438Z,80
2017-04-12T07:36:58.757Z,80
2017-04-12T07:37:58.790Z,90
2017-04-12T07:38:58.807Z,95
2017-04-12T07:39:58.822Z,110
2017-04-12T07:40:58.541Z,115
2017-04-12T07:42:13.485Z,115
2017-04-12T07:42:58.589Z,130
2017-04-12T07:43:58.912Z,150
2017-04-12T07:45:13.553Z,175
2017-04-12T07:45:58.649Z,180
2017-04-12T07:46:58.676Z,175
2017-04-12T07:48:13.615Z,175
2017-04-12T07:49:13.641Z,185
2017-04-12T07:49:59.247Z,205
2017-04-12T07:51:59.091Z,210
2017-04-12T07:52:59.105Z,170
2017-04-12T07:53:58.535Z,145
2017-04-12T07:54:59.183Z,140
2017-04-12T07:55:59.195Z,140
2017-04-12T07:56:59.201Z,140
2017-04-12T07:57:58.617Z,140
2017-04-12T07:59:13.859Z,135
2017-04-12T07:59:59.266Z,130
2017-04-12T08:01:13.601Z,125
2017-04-12T08:01:59.011Z,120
2017-04-12T08:02:59.032Z,125
2017-04-12T08:04:13.976Z,130
2017-04-12T08:04:59.576Z,130
2017-04-12T08:05:59.096Z,120
2017-04-12T08:06:59.117Z,105
2017-04-12T08:08:59.162Z,95
2017-04-12T08:10:59.512Z,100
2017-04-12T08:11:59.584Z,110
2017-04-12T08:13:14.179Z,125
2017-04-12T08:13:59.591Z,140
2017-04-12T08:14:59.603Z,155
2017-04-12T08:16:13.939Z,165
2017-04-12T08:16:59.648Z,160
2017-04-12T08:17:59.362Z,160
2017-04-12T08:18:59.702Z,155
2017-04-12T08:19:59.710Z,145
2017-04-12T08:21:14.350Z,120
2017-04-12T08:22:59.177Z,105
2017-04-12T08:24:59.571Z,100
2017-04-12T08:25:59.543Z,100
2017-04-12T08:26:59.871Z,120
2017-04-12T08:27:59.894Z,145
2017-04-12T08:28:59.915Z,175
2017-04-12T08:29:59.637Z,205
2017-04-12T08:30:59.368Z,195
2017-04-12T08:32:29.216Z,170
2017-04-12T08:32:59.703Z,170
2017-04-12T08:34:00.028Z,175
2017-04-12T08:34:59.747Z,170
2017-04-12T08:36:14.383Z,180
2017-04-12T08:38:00.154Z,235
2017-04-12T08:40:00.210Z,245
2017-04-12T08:41:59.906Z,320
2017-04-12T08:43:00.233Z,275
2017-04-12T08:43:59.956Z,225
2017-04-12T08:45:00.291Z,195
2017-04-12T08:46:14.916Z,180
2017-04-12T08:47:29.558Z,150
2017-04-12T08:48:14.963Z,125
2017-04-12T08:49:14.688Z,105
2017-04-12T08:50:15.010Z,100
2017-04-12T08:51:00.111Z,100
2017-04-12T08:52:15.066Z,125
2017-04-12T08:53:00.159Z,140
2017-04-12T08:54:00.180Z,140
2017-04-12T08:54:59.901Z,120
2017-04-12T08:56:00.534Z,125
2017-04-12T08:56:59.949Z,130
2017-04-12T08:59:14.914Z,155
2017-04-12T09:00:00.323Z,150
2017-04-12T09:01:00.344Z,145
2017-04-12T09:01:59.762Z,135
2017-04-12T09:03:00.396Z,110
2017-04-12T09:04:29.950Z,125
2017-04-12T09:05:00.136Z,130
2017-04-12T09:06:00.763Z,145
2017-04-12T09:07:15.403Z,165
2017-04-12T09:09:00.834Z,155
2017-04-12T09:10:00.858Z,130
2017-04-12T09:11:00.878Z,105
2017-04-12T09:13:00.620Z,85
2017-04-12T09:14:00.646Z,75
2017-04-12T09:15:00.664Z,80
2017-04-12T09:16:00.997Z,85
2017-04-12T09:17:00.711Z,85
2017-04-12T09:18:01.044Z,85
2017-04-12T09:19:00.761Z,80
2017-04-12T09:20:01.084Z,75
2017-04-12T09:21:00.808Z,85
2017-04-12T09:22:01.135Z,75
2017-04-12T09:23:01.159Z,80
2017-04-12T09:24:15.793Z,80
2017-04-12T09:25:00.610Z,75
2017-04-12T09:26:01.241Z,65
2017-04-12T09:27:00.940Z,75
2017-04-12T09:28:00.963Z,75
2017-04-12T09:29:01.291Z,85
2017-04-12T09:30:15.933Z,85
2017-04-12T09:31:15.956Z,90
2017-04-12T09:32:01.058Z,90
2017-04-12T09:33:01.385Z,90
2017-04-12T09:34:01.107Z,75
2017-04-12T09:35:01.429Z,85
2017-04-12T09:36:15.763Z,105
2017-04-12T09:37:15.788Z,105
2017-04-12T09:38:01.194Z,95
2017-04-12T09:39:15.831Z,95
2017-04-12T09:40:00.631Z,100
2017-04-12T09:41:16.179Z,100
2017-04-12T09:42:00.682Z,90
2017-04-12T09:44:01.028Z,90
2017-04-12T09:45:01.051Z,95
2017-04-12T09:46:01.685Z,100
2017-04-12T09:47:01.703Z,110
2017-04-12T09:48:01.425Z,115
2017-04-12T09:49:16.362Z,125
2017-04-12T09:50:16.389Z,130
2017-04-12T09:51:31.026Z,115
2017-04-12T09:52:01.824Z,115
2017-04-12T09:53:16.457Z,100
2017-04-12T09:54:16.172Z,100
2017-04-12T09:55:01.880Z,95
2017-04-12T09:56:01.903Z,100
2017-04-12T09:57:01.933Z,115
2017-04-12T09:58:01.973Z,115
2017-04-12T09:59:01.677Z,105
2017-04-12T10:00:02.009Z,95
2017-04-12T10:01:02.020Z,90
2017-04-12T10:02:01.748Z,80
2017-04-12T10:03:01.767Z,70
2017-04-12T10:04:16.708Z,80
2017-04-12T10:05:16.736Z,95
2017-04-12T10:06:02.135Z,95
2017-04-12T10:07:02.159Z,90
2017-04-12T10:08:02.181Z,80
2017-04-12T10:09:01.912Z,80
2017-04-12T10:10:01.920Z,85
2017-04-12T10:11:16.863Z,75
2017-04-12T10:12:02.274Z,70
2017-04-12T10:13:02.293Z,70
2017-04-12T10:14:02.322Z,65
2017-04-12T10:16:01.758Z,75
2017-04-12T10:17:02.082Z,75
2017-04-12T10:18:17.028Z,70
2017-04-12T10:19:17.049Z,80
2017-04-12T10:20:16.767Z,90
2017-04-12T10:21:16.790Z,85
2017-04-12T10:22:02.502Z,90
2017-04-12T10:23:02.522Z,100
2017-04-12T10:24:02.242Z,100
2017-04-12T10:25:02.568Z,100
2017-04-12T10:26:02.592Z,100
2017-04-12T10:28:16.948Z,70
2017-04-12T10:29:02.356Z,65
2017-04-12T10:30:02.078Z,75
2017-04-12T10:31:02.098Z,95
2017-04-12T10:32:02.122Z,110
2017-04-12T10:33:31.686Z,105
2017-04-12T10:34:02.774Z,100
2017-04-12T10:35:02.492Z,95
2017-04-12T10:36:02.216Z,100
2017-04-12T10:37:02.539Z,100
2017-04-12T10:38:17.181Z,100
2017-04-12T10:39:17.200Z,105
2017-04-12T10:40:02.912Z,110
2017-04-12T10:41:16.943Z,115
2017-04-12T10:42:17.301Z,110
2017-04-12T10:43:17.599Z,110
2017-04-12T10:44:02.698Z,115
2017-04-12T10:45:02.418Z,125
2017-04-12T10:46:17.709Z,150
2017-04-12T10:48:03.090Z,150
2017-04-12T10:49:02.811Z,130
2017-04-12T10:50:02.859Z,105
2017-04-12T10:51:02.859Z,100
2017-04-12T10:52:02.885Z,105
2017-04-12T10:53:17.521Z,110
2017-04-12T10:54:03.236Z,115
2017-04-12T10:55:17.569Z,140
2017-04-12T10:56:17.592Z,150
2017-04-12T10:57:02.694Z,145
2017-04-12T10:59:17.963Z,135
2017-04-12T11:00:17.681Z,130
2017-04-12T11:01:03.391Z,135
2017-04-12T11:02:03.110Z,145
2017-04-12T11:03:03.133Z,145
2017-04-12T11:04:03.473Z,150
2017-04-12T11:05:02.880Z,150
2017-04-12T11:06:03.514Z,150
2017-04-12T11:07:03.535Z,150
2017-04-12T11:08:03.249Z,150
2017-04-12T11:09:18.193Z,140
2017-04-12T11:10:03.815Z,140
2017-04-12T11:11:03.319Z,145
2017-04-12T11:12:32.878Z,145
2017-04-12T11:13:18.331Z,145
2017-04-12T11:14:18.013Z,155
2017-04-12T11:16:18.356Z,155
2017-04-12T11:17:03.767Z,155
2017-04-12T11:18:03.481Z,150
2017-04-12T11:19:03.808Z,145
2017-04-12T11:20:03.837Z,145
2017-04-12T11:21:02.946Z,160
2017-04-12T11:22:03.879Z,175
2017-04-12T11:23:03.902Z,190
2017-04-12T11:24:03.659Z,195
2017-04-12T11:25:03.949Z,195
2017-04-12T11:26:03.383Z,190
2017-04-12T11:27:18.615Z,195
2017-04-12T11:28:03.412Z,195
2017-04-12T11:29:04.048Z,195
2017-04-12T11:30:03.463Z,190
2017-04-12T11:31:03.788Z,185
2017-04-12T11:32:03.812Z,190
2017-04-12T11:33:04.137Z,195
2017-04-12T11:35:04.184Z,195
2017-04-12T11:36:03.905Z,200
2017-04-12T11:37:18.851Z,200
2017-04-12T11:38:04.255Z,200
2017-04-12T11:39:04.897Z,200
2017-04-12T11:40:04.303Z,195
2017-04-12T11:41:03.726Z,190
2017-04-12T11:42:18.670Z,175
2017-04-12T11:43:18.994Z,170
2017-04-12T11:44:04.096Z,165
2017-04-12T11:45:04.425Z,150
2017-04-12T11:46:18.460Z,140
2017-04-12T11:47:04.168Z,145
2017-04-12T11:48:04.192Z,150
2017-04-12T11:50:04.240Z,135
2017-04-12T11:51:03.965Z,120
2017-04-12T11:52:04.591Z,120
2017-04-12T11:53:04.345Z,130
2017-04-12T11:54:04.334Z,145
2017-04-12T11:55:04.665Z,150
2017-04-12T11:56:04.686Z,150
2017-04-12T11:57:04.407Z,145
2017-04-12T11:58:04.732Z,135
2017-04-12T11:59:19.374Z,110
2017-04-12T12:00:04.177Z,95
2017-04-12T12:01:04.848Z,80
2017-04-12T12:02:19.447Z,80
2017-04-12T12:03:04.547Z,90
2017-04-12T12:04:04.270Z,110
2017-04-12T12:05:04.595Z,135
2017-04-12T12:06:04.622Z,150
2017-04-12T12:08:04.667Z,140
2017-04-12T12:10:04.719Z,105
2017-04-12T12:11:05.040Z,105
2017-04-12T12:12:04.765Z,85
2017-04-12T12:13:04.479Z,70
2017-04-12T12:14:05.114Z,55
2017-04-12T12:15:04.832Z,55
2017-04-12T12:16:05.158Z,50
2017-04-12T12:17:04.581Z,45
2017-04-12T12:18:19.823Z,45
2017-04-12T12:19:05.230Z,45
2017-04-12T12:20:05.259Z,50
2017-04-12T12:21:04.975Z,55
2017-04-12T12:22:19.922Z,55
2017-04-12T12:23:05.329Z,60
2017-04-12T12:24:05.042Z,65
2017-04-12T12:25:05.370Z,80
2017-04-12T12:26:19.403Z,90
2017-04-12T12:27:05.421Z,95
2017-04-12T12:28:05.143Z,105
2017-04-12T12:29:19.780Z,130
2017-04-12T12:30:05.183Z,130
2017-04-12T12:31:05.207Z,120
2017-04-12T12:32:04.929Z,115
2017-04-12T12:33:05.600Z,110
2017-04-12T12:34:20.194Z,105
2017-04-12T12:35:05.299Z,100
2017-04-12T12:36:05.626Z,90
2017-04-12T12:37:05.746Z,95
2017-04-12T12:38:05.671Z,100
2017-04-12T12:39:05.697Z,105
2017-04-12T12:40:05.418Z,115
2017-04-12T12:41:05.449Z,120
2017-04-12T12:42:05.767Z,120
2017-04-12T12:43:05.789Z,125
2017-04-12T12:44:20.124Z,130
2017-04-12T12:45:34.818Z,125
2017-04-12T12:47:05.579Z,135
2017-04-12T12:48:05.309Z,140
2017-04-12T12:49:20.547Z,150
2017-04-12T12:50:05.957Z,155
2017-04-12T12:51:05.978Z,175
2017-04-12T12:52:05.949Z,185
2017-04-12T12:53:05.420Z,185
2017-04-12T12:55:06.076Z,180
2017-04-12T12:56:06.095Z,180
2017-04-12T12:57:06.128Z,180
2017-04-12T12:59:06.167Z,175
2017-04-12T13:00:06.196Z,180
2017-04-12T13:01:06.224Z,185
2017-04-12T13:02:06.243Z,185
2017-04-12T13:03:06.267Z,180
2017-04-12T13:04:06.286Z,175
2017-04-12T13:05:06.311Z,165
2017-04-12T13:06:06.331Z,155
2017-04-12T13:07:06.360Z,145
2017-04-12T13:08:06.133Z,140
2017-04-12T13:09:06.446Z,140
2017-04-12T13:10:21.050Z,140
2017-04-12T13:11:06.457Z,140
2017-04-12T13:12:06.476Z,140
2017-04-12T13:13:21.118Z,135
2017-04-12T13:14:06.527Z,135
2017-04-12T13:15:06.549Z,130
2017-04-12T13:16:06.573Z,120
2017-04-12T13:17:06.597Z,110
2017-04-12T13:18:21.235Z,100
2017-04-12T13:19:06.649Z,95
2017-04-12T13:20:06.670Z,95
2017-04-12T13:21:21.311Z,100
2017-04-12T13:22:21.332Z,110
2017-04-12T13:23:06.742Z,125
2017-04-12T13:24:06.760Z,130
2017-04-12T13:25:06.791Z,135
2017-04-12T13:26:06.819Z,135
2017-04-12T13:27:06.839Z,135
2017-04-12T13:28:06.855Z,130
2017-04-12T13:29:21.499Z,125
2017-04-12T13:30:21.526Z,120
2017-04-12T13:31:07.532Z,120
2017-04-12T13:32:21.570Z,120
2017-04-12T13:33:06.673Z,120
2017-04-12T13:34:06.734Z,115
2017-04-12T13:35:07.024Z,115
2017-04-12T13:36:07.349Z,110
2017-04-12T13:37:21.698Z,110
2017-04-12T13:38:07.099Z,110
2017-04-12T13:39:21.735Z,105
2017-04-12T13:40:07.147Z,105
2017-04-12T13:41:07.170Z,100
2017-04-12T13:42:07.195Z,95
2017-04-12T13:43:07.220Z,90
2017-04-12T13:44:07.243Z,85
2017-04-12T13:45:07.264Z,85
2017-04-12T13:46:07.588Z,85
2017-04-12T13:47:07.314Z,85
2017-04-12T13:48:21.957Z,80
2017-04-12T13:49:07.369Z,75
2017-04-12T13:50:22.045Z,70
2017-04-12T13:51:07.405Z,70
2017-04-12T13:52:07.428Z,60
2017-04-12T13:53:22.121Z,55
2017-04-12T13:54:07.482Z,55
2017-04-12T13:55:07.501Z,55
2017-04-12T13:56:07.528Z,55
2017-04-12T13:57:07.559Z,55
2017-04-12T13:58:22.192Z,55
2017-04-12T13:59:07.603Z,55
2017-04-12T14:00:07.315Z,55
2017-04-12T14:01:07.342Z,50
2017-04-12T14:02:07.365Z,45
2017-04-12T14:03:07.392Z,50
2017-04-12T14:04:22.328Z,50
2017-04-12T14:05:07.434Z,45
2017-04-12T14:06:07.765Z,45
2017-04-12T14:07:07.485Z,40
2017-04-12T14:08:22.425Z,35
2017-04-12T14:09:22.750Z,35
2017-04-12T14:10:07.550Z,35
2017-04-12T14:11:07.887Z,30
2017-04-12T14:12:07.960Z,35
2017-04-12T14:13:07.924Z,40
2017-04-12T14:14:07.946Z,45
2017-04-12T14:16:07.691Z,45
2017-04-12T14:17:08.022Z,40
2017-04-12T14:18:07.738Z,40
2017-04-12T14:19:22.682Z,35
2017-04-12T14:20:07.790Z,35
2017-04-12T14:21:37.345Z,35
2017-04-12T14:22:22.751Z,35
2017-04-12T14:23:07.901Z,40
2017-04-12T14:24:22.796Z,45
2017-04-12T14:25:08.206Z,50
2017-04-12T14:26:08.228Z,55
2017-04-12T14:29:07.994Z,55
2017-04-12T14:30:08.333Z,55
2017-04-12T14:31:08.343Z,55
2017-04-12T14:32:08.376Z,55
2017-04-12T14:33:23.010Z,55
2017-04-12T14:34:08.409Z,55
2017-04-12T14:35:08.164Z,50
2017-04-12T14:36:08.459Z,50
2017-04-12T14:37:23.305Z,45
2017-04-12T14:38:23.122Z,40
2017-04-12T14:39:08.525Z,40
2017-04-12T14:40:23.165Z,35
2017-04-12T14:41:08.272Z,35
2017-04-12T14:42:08.601Z,35
2017-04-12T14:43:08.617Z,35
2017-04-12T14:44:08.645Z,40
2017-04-12T14:45:08.664Z,45
2017-04-12T14:46:08.382Z,45
2017-04-12T14:47:23.328Z,45
2017-04-12T14:48:08.428Z,45
2017-04-12T14:49:08.459Z,45
2017-04-12T14:50:08.171Z,45
2017-04-12T14:51:23.420Z,50
2017-04-12T14:52:08.824Z,50
2017-04-12T14:53:08.845Z,50
2017-04-12T14:54:08.866Z,55
2017-04-12T14:55:23.507Z,55
2017-04-12T14:57:08.936Z,60
2017-04-12T14:58:08.960Z,60
2017-04-12T14:59:08.981Z,55
2017-04-12T15:00:09.006Z,55
2017-04-12T15:01:09.029Z,60
2017-04-12T15:02:09.051Z,60
2017-04-12T15:04:09.094Z,60
2017-04-12T15:05:09.119Z,60
2017-04-12T15:06:09.143Z,60
2017-04-12T15:07:09.162Z,55
2017-04-12T15:08:23.804Z,60
2017-04-12T15:09:38.440Z,60
2017-04-12T15:10:09.229Z,60
2017-04-12T15:11:23.566Z,55
2017-04-12T15:12:23.892Z,50
2017-04-12T15:13:09.297Z,50
2017-04-12T15:14:09.325Z,50
2017-04-12T15:15:09.045Z,45
2017-04-12T15:16:09.372Z,45
2017-04-12T15:17:09.388Z,45